WXM80 ListenWXM80 Stop

You find our weather info also at:

UK Metoffice

WeatherCloud

Weather Underground

Northeastern Weather Network

AWEKAS

Citizen Weather Observer Program (CWOP)

HAMweather, WeatherForYou, PWS Weather


Weather Underground History page Text

Daily Summary for March 24, 2017 Units:  Both    English   Metric
« Previous Day
Next Day »
Daily Weekly Monthly Yearly Custom
  High: Low: Average:
Temperature: 51.7 °F /  10.9 °C 31.9 °F /  -0.1 °C 42.2 °F /  5.7 °C
Dew Point: 39.3 °F /  4.1 °C 25.2 °F /  -3.8 °C 32 °F /  0 °C
Humidity: 79 % 49 % 68 %
Wind Speed: 11.7 mph /  18.8 km/h - 3.6 mph /  5.8 km/h
Wind Gust: 19.6 mph /  31.5 km/h - -
Wind:- - SSW
Pressure: 30.51 in /  1033.1 hPa 30.08 in /  1018.5 hPa -
Precipitation: 0.00 in /  0 mm    
Historical Graphs
 
 
Tabular Data for March 24, 2017
Time Temperature Dew Point Pressure Wind Wind Speed Wind Gust Humidity Rainfall Rate (Hourly)
00:00 33.7 °F /  0.9 °C 25.3 °F /  -3.7 °C 30.50 in /  1032.7 hPa SSW 2.1 mph /  3.4 km/h 3.5 mph /  5.6 km/h 71 % 0.00 in /  0 mm
00:05 33.7 °F /  0.9 °C 25.6 °F /  -3.6 °C 30.50 in /  1032.7 hPa SSW 1.6 mph /  2.6 km/h 3.5 mph /  5.6 km/h 72 % 0.00 in /  0 mm
00:10 33.7 °F /  0.9 °C 25.6 °F /  -3.6 °C 30.50 in /  1032.7 hPa SSW 2.6 mph /  4.2 km/h 6.0 mph /  9.7 km/h 72 % 0.00 in /  0 mm
00:15 33.7 °F /  0.9 °C 26.0 °F /  -3.3 °C 30.50 in /  1032.7 hPa SW 4.2 mph /  6.8 km/h 6.9 mph /  11.1 km/h 73 % 0.00 in /  0 mm
00:20 33.7 °F /  0.9 °C 26.0 °F /  -3.3 °C 30.50 in /  1032.7 hPa SSW 2.4 mph /  3.9 km/h 5.8 mph /  9.3 km/h 73 % 0.00 in /  0 mm
00:25 33.8 °F /  1 °C 26.1 °F /  -3.3 °C 30.50 in /  1032.7 hPa WSW 2.2 mph /  3.5 km/h 3.5 mph /  5.6 km/h 73 % 0.00 in /  0 mm
00:30 33.8 °F /  1 °C 26.1 °F /  -3.3 °C 30.50 in /  1032.7 hPa SW 2.4 mph /  3.9 km/h 4.0 mph /  6.4 km/h 73 % 0.00 in /  0 mm
00:35 33.8 °F /  1 °C 26.1 °F /  -3.3 °C 30.51 in /  1033.1 hPa SW 2.7 mph /  4.3 km/h 4.6 mph /  7.4 km/h 73 % 0.00 in /  0 mm
00:40 33.9 °F /  1.1 °C 26.2 °F /  -3.2 °C 30.51 in /  1033.1 hPa SW 2.1 mph /  3.4 km/h 4.6 mph /  7.4 km/h 73 % 0.00 in /  0 mm
00:45 33.9 °F /  1.1 °C 26.2 °F /  -3.2 °C 30.51 in /  1033.1 hPa WSW 0.6 mph /  1 km/h 3.5 mph /  5.6 km/h 73 % 0.00 in /  0 mm
00:50 33.9 °F /  1.1 °C 26.2 °F /  -3.2 °C 30.51 in /  1033.1 hPa WSW 0.9 mph /  1.4 km/h 2.3 mph /  3.7 km/h 73 % 0.00 in /  0 mm
00:55 33.9 °F /  1.1 °C 26.2 °F /  -3.2 °C 30.51 in /  1033.1 hPa WSW 0.6 mph /  1 km/h 2.3 mph /  3.7 km/h 73 % 0.00 in /  0 mm
01:00 33.8 °F /  1 °C 25.7 °F /  -3.5 °C 30.51 in /  1033.1 hPa WSW 0.6 mph /  1 km/h 1.2 mph /  1.9 km/h 72 % 0.00 in /  0 mm
01:05 33.8 °F /  1 °C 26.1 °F /  -3.3 °C 30.51 in /  1033.1 hPa WSW 1.6 mph /  2.6 km/h 3.5 mph /  5.6 km/h 73 % 0.00 in /  0 mm
01:10 33.7 °F /  0.9 °C 25.6 °F /  -3.6 °C 30.51 in /  1033.1 hPa Calm     72 % 0.00 in /  0 mm
01:15 33.6 °F /  0.9 °C 25.5 °F /  -3.6 °C 30.50 in /  1032.7 hPa Calm     72 % 0.00 in /  0 mm
01:20 33.5 °F /  0.8 °C 25.4 °F /  -3.7 °C 30.50 in /  1032.7 hPa WSW 0.6 mph /  1 km/h 1.2 mph /  1.9 km/h 72 % 0.00 in /  0 mm
01:25 33.3 °F /  0.7 °C 25.6 °F /  -3.6 °C 30.50 in /  1032.7 hPa WSW 0.2 mph /  0.3 km/h 2.3 mph /  3.7 km/h 73 % 0.00 in /  0 mm
01:30 33.2 °F /  0.7 °C 25.5 °F /  -3.6 °C 30.49 in /  1032.4 hPa WSW 0.5 mph /  0.8 km/h 2.3 mph /  3.7 km/h 73 % 0.00 in /  0 mm
01:35 33.1 °F /  0.6 °C 25.4 °F /  -3.7 °C 30.49 in /  1032.4 hPa WSW 1.5 mph /  2.4 km/h 3.5 mph /  5.6 km/h 73 % 0.00 in /  0 mm
01:40 32.9 °F /  0.5 °C 25.2 °F /  -3.8 °C 30.49 in /  1032.4 hPa WSW 1.3 mph /  2.1 km/h 3.5 mph /  5.6 km/h 73 % 0.00 in /  0 mm
01:45 32.8 °F /  0.4 °C 25.4 °F /  -3.7 °C 30.49 in /  1032.4 hPa SW 1.5 mph /  2.4 km/h 3.5 mph /  5.6 km/h 74 % 0.00 in /  0 mm
01:50 32.7 °F /  0.4 °C 25.3 °F /  -3.7 °C 30.49 in /  1032.4 hPa SW 0.4 mph /  0.6 km/h 2.0 mph /  3.2 km/h 74 % 0.00 in /  0 mm
01:55 32.7 °F /  0.4 °C 25.6 °F /  -3.6 °C 30.49 in /  1032.4 hPa SW 0.5 mph /  0.8 km/h 1.2 mph /  1.9 km/h 75 % 0.00 in /  0 mm
02:00 32.7 °F /  0.4 °C 25.6 °F /  -3.6 °C 30.49 in /  1032.4 hPa SW 0.7 mph /  1.1 km/h 4.0 mph /  6.4 km/h 75 % 0.00 in /  0 mm
02:05 32.6 °F /  0.3 °C 25.6 °F /  -3.6 °C 30.49 in /  1032.4 hPa Calm     75 % 0.00 in /  0 mm
02:10 32.6 °F /  0.3 °C 25.6 °F /  -3.6 °C 30.49 in /  1032.4 hPa Calm     75 % 0.00 in /  0 mm
02:15 32.5 °F /  0.3 °C 25.5 °F /  -3.6 °C 30.48 in /  1032.1 hPa Calm   1.0 mph /  1.6 km/h 75 % 0.00 in /  0 mm
02:20 32.4 °F /  0.2 °C 25.7 °F /  -3.5 °C 30.49 in /  1032.4 hPa SW 0.8 mph /  1.3 km/h 2.0 mph /  3.2 km/h 76 % 0.00 in /  0 mm
02:25 32.3 °F /  0.2 °C 25.6 °F /  -3.6 °C 30.49 in /  1032.4 hPa SW 0.8 mph /  1.3 km/h 2.3 mph /  3.7 km/h 76 % 0.00 in /  0 mm
02:31 32.2 °F /  0.1 °C 25.5 °F /  -3.6 °C 30.50 in /  1032.7 hPa Calm     76 % 0.00 in /  0 mm
02:36 32.1 °F /  0.1 °C 25.4 °F /  -3.7 °C 30.50 in /  1032.7 hPa SW 0.4 mph /  0.6 km/h 2.0 mph /  3.2 km/h 76 % 0.00 in /  0 mm
02:41 32.1 °F /  0.1 °C 25.4 °F /  -3.7 °C 30.50 in /  1032.7 hPa SW 1.6 mph /  2.6 km/h 3.5 mph /  5.6 km/h 76 % 0.00 in /  0 mm
02:46 32.0 °F /  0 °C 25.6 °F /  -3.6 °C 30.49 in /  1032.4 hPa Calm     77 % 0.00 in /  0 mm
02:51 32.0 °F /  0 °C 25.6 °F /  -3.6 °C 30.50 in /  1032.7 hPa SSW 0.9 mph /  1.4 km/h 3.5 mph /  5.6 km/h 77 % 0.00 in /  0 mm
02:56 31.9 °F /  -0.1 °C 25.5 °F /  -3.6 °C 30.50 in /  1032.7 hPa SSW 0.4 mph /  0.6 km/h 2.0 mph /  3.2 km/h 77 % 0.00 in /  0 mm
03:01 31.9 °F /  -0.1 °C 25.8 °F /  -3.4 °C 30.49 in /  1032.4 hPa SSW 0.4 mph /  0.6 km/h 2.3 mph /  3.7 km/h 78 % 0.00 in /  0 mm
03:06 31.9 °F /  -0.1 °C 25.8 °F /  -3.4 °C 30.49 in /  1032.4 hPa SSW 0.2 mph /  0.3 km/h 2.0 mph /  3.2 km/h 78 % 0.00 in /  0 mm
03:11 31.9 °F /  -0.1 °C 26.1 °F /  -3.3 °C 30.49 in /  1032.4 hPa SSW 0.9 mph /  1.4 km/h 1.2 mph /  1.9 km/h 79 % 0.00 in /  0 mm
03:16 32.1 °F /  0.1 °C 26.3 °F /  -3.2 °C 30.48 in /  1032.1 hPa SSW 1.2 mph /  1.9 km/h 2.3 mph /  3.7 km/h 79 % 0.00 in /  0 mm
03:21 32.2 °F /  0.1 °C 26.4 °F /  -3.1 °C 30.48 in /  1032.1 hPa SSW 1.1 mph /  1.8 km/h 2.3 mph /  3.7 km/h 79 % 0.00 in /  0 mm
03:26 32.3 °F /  0.2 °C 26.5 °F /  -3.1 °C 30.48 in /  1032.1 hPa SSW 0.7 mph /  1.1 km/h 2.3 mph /  3.7 km/h 79 % 0.00 in /  0 mm
03:31 32.4 °F /  0.2 °C 26.6 °F /  -3 °C 30.48 in /  1032.1 hPa SSW 1.1 mph /  1.8 km/h 2.3 mph /  3.7 km/h 79 % 0.00 in /  0 mm
03:36 32.4 °F /  0.2 °C 26.6 °F /  -3 °C 30.48 in /  1032.1 hPa SSW 0.9 mph /  1.4 km/h 1.2 mph /  1.9 km/h 79 % 0.00 in /  0 mm
03:41 32.5 °F /  0.3 °C 26.7 °F /  -2.9 °C 30.47 in /  1031.7 hPa SSW 0.5 mph /  0.8 km/h 2.3 mph /  3.7 km/h 79 % 0.00 in /  0 mm
03:46 32.6 °F /  0.3 °C 26.5 °F /  -3.1 °C 30.47 in /  1031.7 hPa Calm   3.5 mph /  5.6 km/h 78 % 0.00 in /  0 mm
03:51 32.7 °F /  0.4 °C 26.9 °F /  -2.8 °C 30.46 in /  1031.4 hPa SSW 2.1 mph /  3.4 km/h 3.5 mph /  5.6 km/h 79 % 0.00 in /  0 mm
03:53 32.7 °F /  0.4 °C 26.9 °F /  -2.8 °C 30.46 in /  1031.4 hPa SSW 1.8 mph /  2.9 km/h 2.3 mph /  3.7 km/h 79 % 0.00 in /  0 mm
03:58 32.7 °F /  0.4 °C 26.9 °F /  -2.8 °C 30.46 in /  1031.4 hPa Calm   1.2 mph /  1.9 km/h 79 % 0.00 in /  0 mm
04:03 32.6 °F /  0.3 °C 26.5 °F /  -3.1 °C 30.46 in /  1031.4 hPa SSW 0.2 mph /  0.3 km/h 2.3 mph /  3.7 km/h 78 % 0.00 in /  0 mm
04:08 32.6 °F /  0.3 °C 26.5 °F /  -3.1 °C 30.46 in /  1031.4 hPa SSW 1.3 mph /  2.1 km/h 2.3 mph /  3.7 km/h 78 % 0.00 in /  0 mm
04:13 32.6 °F /  0.3 °C 26.5 °F /  -3.1 °C 30.46 in /  1031.4 hPa SSW 0.9 mph /  1.4 km/h 2.3 mph /  3.7 km/h 78 % 0.00 in /  0 mm
04:18 32.5 °F /  0.3 °C 26.4 °F /  -3.1 °C 30.45 in /  1031 hPa SSW 2.1 mph /  3.4 km/h 3.5 mph /  5.6 km/h 78 % 0.00 in /  0 mm
04:23 32.5 °F /  0.3 °C 26.7 °F /  -2.9 °C 30.45 in /  1031 hPa SSW 1.3 mph /  2.1 km/h 2.3 mph /  3.7 km/h 79 % 0.00 in /  0 mm
04:28 32.4 °F /  0.2 °C 26.6 °F /  -3 °C 30.45 in /  1031 hPa SSW 0.9 mph /  1.4 km/h 3.5 mph /  5.6 km/h 79 % 0.00 in /  0 mm
04:33 32.4 °F /  0.2 °C 26.3 °F /  -3.2 °C 30.46 in /  1031.4 hPa SSW 0.6 mph /  1 km/h 2.3 mph /  3.7 km/h 78 % 0.00 in /  0 mm
04:38 32.3 °F /  0.2 °C 26.2 °F /  -3.2 °C 30.46 in /  1031.4 hPa SSW 0.1 mph /  0.2 km/h 2.0 mph /  3.2 km/h 78 % 0.00 in /  0 mm
04:44 32.3 °F /  0.2 °C 26.2 °F /  -3.2 °C 30.45 in /  1031 hPa SSW 1.0 mph /  1.6 km/h 3.5 mph /  5.6 km/h 78 % 0.00 in /  0 mm
04:49 32.3 °F /  0.2 °C 26.2 °F /  -3.2 °C 30.45 in /  1031 hPa SSW 2.7 mph /  4.3 km/h 3.5 mph /  5.6 km/h 78 % 0.00 in /  0 mm
04:54 32.2 °F /  0.1 °C 26.1 °F /  -3.3 °C 30.45 in /  1031 hPa South 2.3 mph /  3.7 km/h 5.8 mph /  9.3 km/h 78 % 0.00 in /  0 mm
04:59 32.2 °F /  0.1 °C 26.1 °F /  -3.3 °C 30.45 in /  1031 hPa SSW 3.2 mph /  5.1 km/h 5.8 mph /  9.3 km/h 78 % 0.00 in /  0 mm
05:04 32.4 °F /  0.2 °C 26.0 °F /  -3.3 °C 30.45 in /  1031 hPa South 2.7 mph /  4.3 km/h 5.0 mph /  8 km/h 77 % 0.00 in /  0 mm
05:09 32.6 °F /  0.3 °C 25.9 °F /  -3.4 °C 30.45 in /  1031 hPa SSW 3.8 mph /  6.1 km/h 7.0 mph /  11.3 km/h 76 % 0.00 in /  0 mm
05:14 32.8 °F /  0.4 °C 26.1 °F /  -3.3 °C 30.45 in /  1031 hPa SW 4.1 mph /  6.6 km/h 6.9 mph /  11.1 km/h 76 % 0.00 in /  0 mm
05:19 33.0 °F /  0.6 °C 25.9 °F /  -3.4 °C 30.46 in /  1031.4 hPa South 3.0 mph /  4.8 km/h 4.6 mph /  7.4 km/h 75 % 0.00 in /  0 mm
05:24 33.1 °F /  0.6 °C 26.0 °F /  -3.3 °C 30.46 in /  1031.4 hPa SSW 4.1 mph /  6.6 km/h 8.1 mph /  13 km/h 75 % 0.00 in /  0 mm
05:29 33.4 °F /  0.8 °C 26.0 °F /  -3.3 °C 30.46 in /  1031.4 hPa SSW 5.3 mph /  8.5 km/h 8.1 mph /  13 km/h 74 % 0.00 in /  0 mm
05:34 33.6 °F /  0.9 °C 25.9 °F /  -3.4 °C 30.47 in /  1031.7 hPa SW 2.5 mph /  4 km/h 5.0 mph /  8 km/h 73 % 0.00 in /  0 mm
05:37 33.7 °F /  0.9 °C 26.0 °F /  -3.3 °C 30.46 in /  1031.4 hPa SW 4.5 mph /  7.2 km/h 6.9 mph /  11.1 km/h 73 % 0.00 in /  0 mm
05:42 33.9 °F /  1.1 °C 25.8 °F /  -3.4 °C 30.46 in /  1031.4 hPa WSW 3.3 mph /  5.3 km/h 8.1 mph /  13 km/h 72 % 0.00 in /  0 mm
05:47 34.1 °F /  1.2 °C 26.0 °F /  -3.3 °C 30.47 in /  1031.7 hPa SSW 5.2 mph /  8.4 km/h 10.4 mph /  16.7 km/h 72 % 0.00 in /  0 mm
05:52 34.3 °F /  1.3 °C 25.9 °F /  -3.4 °C 30.47 in /  1031.7 hPa SW 4.6 mph /  7.4 km/h 7.0 mph /  11.3 km/h 71 % 0.00 in /  0 mm
05:57 34.4 °F /  1.3 °C 26.0 °F /  -3.3 °C 30.47 in /  1031.7 hPa SSW 5.2 mph /  8.4 km/h 9.2 mph /  14.8 km/h 71 % 0.00 in /  0 mm
06:02 34.6 °F /  1.4 °C 26.2 °F /  -3.2 °C 30.47 in /  1031.7 hPa SW 3.5 mph /  5.6 km/h 4.0 mph /  6.4 km/h 71 % 0.00 in /  0 mm
06:07 34.7 °F /  1.5 °C 26.3 °F /  -3.2 °C 30.47 in /  1031.7 hPa SW 2.9 mph /  4.7 km/h 4.6 mph /  7.4 km/h 71 % 0.00 in /  0 mm
06:12 34.8 °F /  1.6 °C 26.4 °F /  -3.1 °C 30.46 in /  1031.4 hPa SSW 2.8 mph /  4.5 km/h 4.6 mph /  7.4 km/h 71 % 0.00 in /  0 mm
06:17 34.8 °F /  1.6 °C 26.4 °F /  -3.1 °C 30.46 in /  1031.4 hPa South 2.2 mph /  3.5 km/h 5.8 mph /  9.3 km/h 71 % 0.00 in /  0 mm
06:22 34.8 °F /  1.6 °C 26.4 °F /  -3.1 °C 30.45 in /  1031 hPa SSW 2.9 mph /  4.7 km/h 4.0 mph /  6.4 km/h 71 % 0.00 in /  0 mm
06:27 34.8 °F /  1.6 °C 26.4 °F /  -3.1 °C 30.45 in /  1031 hPa SSW 3.1 mph /  5 km/h 4.6 mph /  7.4 km/h 71 % 0.00 in /  0 mm
06:32 34.8 °F /  1.6 °C 26.4 °F /  -3.1 °C 30.45 in /  1031 hPa SW 2.8 mph /  4.5 km/h 6.9 mph /  11.1 km/h 71 % 0.00 in /  0 mm
06:37 34.8 °F /  1.6 °C 26.4 °F /  -3.1 °C 30.44 in /  1030.7 hPa SW 3.2 mph /  5.1 km/h 4.6 mph /  7.4 km/h 71 % 0.00 in /  0 mm
06:42 34.8 °F /  1.6 °C 26.4 °F /  -3.1 °C 30.45 in /  1031 hPa South 3.4 mph /  5.5 km/h 5.8 mph /  9.3 km/h 71 % 0.00 in /  0 mm
06:47 34.8 °F /  1.6 °C 26.7 °F /  -2.9 °C 30.45 in /  1031 hPa SW 3.8 mph /  6.1 km/h 6.9 mph /  11.1 km/h 72 % 0.00 in /  0 mm
06:52 34.9 °F /  1.6 °C 26.8 °F /  -2.9 °C 30.44 in /  1030.7 hPa SSW 2.9 mph /  4.7 km/h 4.6 mph /  7.4 km/h 72 % 0.00 in /  0 mm
06:57 35.0 °F /  1.7 °C 27.2 °F /  -2.7 °C 30.44 in /  1030.7 hPa SSW 1.7 mph /  2.7 km/h 6.9 mph /  11.1 km/h 73 % 0.00 in /  0 mm
07:02 35.1 °F /  1.7 °C 27.3 °F /  -2.6 °C 30.45 in /  1031 hPa SW 1.8 mph /  2.9 km/h 3.5 mph /  5.6 km/h 73 % 0.00 in /  0 mm
07:07 35.3 °F /  1.8 °C 27.5 °F /  -2.5 °C 30.45 in /  1031 hPa SW 1.8 mph /  2.9 km/h 4.6 mph /  7.4 km/h 73 % 0.00 in /  0 mm
07:12 35.5 °F /  1.9 °C 27.7 °F /  -2.4 °C 30.46 in /  1031.4 hPa SW 1.9 mph /  3.1 km/h 3.5 mph /  5.6 km/h 73 % 0.00 in /  0 mm
07:17 35.6 °F /  2 °C 28.1 °F /  -2.2 °C 30.45 in /  1031 hPa WSW 1.9 mph /  3.1 km/h 8.1 mph /  13 km/h 74 % 0.00 in /  0 mm
07:22 35.8 °F /  2.1 °C 28.3 °F /  -2.1 °C 30.46 in /  1031.4 hPa SW 0.7 mph /  1.1 km/h 2.3 mph /  3.7 km/h 74 % 0.00 in /  0 mm
07:27 36.0 °F /  2.2 °C 28.5 °F /  -1.9 °C 30.45 in /  1031 hPa SW 4.3 mph /  6.9 km/h 6.9 mph /  11.1 km/h 74 % 0.00 in /  0 mm
07:32 36.1 °F /  2.3 °C 28.6 °F /  -1.9 °C 30.45 in /  1031 hPa SW 2.1 mph /  3.4 km/h 4.0 mph /  6.4 km/h 74 % 0.00 in /  0 mm
07:37 36.2 °F /  2.3 °C 28.7 °F /  -1.8 °C 30.44 in /  1030.7 hPa SSW 4.4 mph /  7.1 km/h 5.8 mph /  9.3 km/h 74 % 0.00 in /  0 mm
07:42 36.4 °F /  2.4 °C 29.2 °F /  -1.6 °C 30.44 in /  1030.7 hPa SSW 4.0 mph /  6.4 km/h 5.0 mph /  8 km/h 75 % 0.00 in /  0 mm
07:47 36.6 °F /  2.6 °C 29.4 °F /  -1.4 °C 30.44 in /  1030.7 hPa SSW 1.8 mph /  2.9 km/h 5.0 mph /  8 km/h 75 % 0.00 in /  0 mm
07:52 36.8 °F /  2.7 °C 29.6 °F /  -1.3 °C 30.44 in /  1030.7 hPa SSW 3.1 mph /  5 km/h 5.8 mph /  9.3 km/h 75 % 0.00 in /  0 mm
08:02 37.3 °F /  2.9 °C 30.1 °F /  -1.1 °C 30.44 in /  1030.7 hPa SW 1.1 mph /  1.8 km/h 4.6 mph /  7.4 km/h 75 % 0.00 in /  0 mm
08:07 37.5 °F /  3.1 °C 30.3 °F /  -0.9 °C 30.44 in /  1030.7 hPa SW 4.3 mph /  6.9 km/h 5.8 mph /  9.3 km/h 75 % 0.00 in /  0 mm
08:12 37.8 °F /  3.2 °C 30.3 °F /  -0.9 °C 30.43 in /  1030.4 hPa SW 4.8 mph /  7.7 km/h 9.2 mph /  14.8 km/h 74 % 0.00 in /  0 mm
08:17 38.0 °F /  3.3 °C 30.4 °F /  -0.9 °C 30.44 in /  1030.7 hPa South 4.8 mph /  7.7 km/h 6.9 mph /  11.1 km/h 74 % 0.00 in /  0 mm
08:22 38.2 °F /  3.4 °C 30.6 °F /  -0.8 °C 30.44 in /  1030.7 hPa SW 1.2 mph /  1.9 km/h 3.5 mph /  5.6 km/h 74 % 0.00 in /  0 mm
08:23 38.2 °F /  3.4 °C 30.6 °F /  -0.8 °C 30.44 in /  1030.7 hPa SW 2.2 mph /  3.5 km/h 3.5 mph /  5.6 km/h 74 % 0.00 in /  0 mm
08:28 38.4 °F /  3.6 °C 30.8 °F /  -0.7 °C 30.44 in /  1030.7 hPa South 3.1 mph /  5 km/h 8.0 mph /  12.9 km/h 74 % 0.00 in /  0 mm
08:30 38.5 °F /  3.6 °C 30.9 °F /  -0.6 °C 30.44 in /  1030.7 hPa SSW 4.3 mph /  6.9 km/h 6.9 mph /  11.1 km/h 74 % 0.00 in /  0 mm
08:35 38.6 °F /  3.7 °C 31.4 °F /  -0.3 °C 30.43 in /  1030.4 hPa SW 0.7 mph /  1.1 km/h 6.9 mph /  11.1 km/h 75 % 0.00 in /  0 mm
08:40 38.8 °F /  3.8 °C 31.9 °F /  -0.1 °C 30.43 in /  1030.4 hPa South 4.2 mph /  6.8 km/h 6.9 mph /  11.1 km/h 76 % 0.00 in /  0 mm
08:45 39.1 °F /  3.9 °C 32.2 °F /  0.1 °C 30.43 in /  1030.4 hPa SSW 5.2 mph /  8.4 km/h 6.9 mph /  11.1 km/h 76 % 0.00 in /  0 mm
08:51 39.3 °F /  4.1 °C 32.4 °F /  0.2 °C 30.43 in /  1030.4 hPa SSW 4.7 mph /  7.6 km/h 6.9 mph /  11.1 km/h 76 % 0.00 in /  0 mm
08:56 39.7 °F /  4.3 °C 32.8 °F /  0.4 °C 30.42 in /  1030 hPa South 2.9 mph /  4.7 km/h 6.0 mph /  9.7 km/h 76 % 0.00 in /  0 mm
09:01 40.2 °F /  4.6 °C 32.9 °F /  0.5 °C 30.42 in /  1030 hPa WSW 4.0 mph /  6.4 km/h 8.1 mph /  13 km/h 75 % 0.00 in /  0 mm
09:06 40.7 °F /  4.8 °C 32.7 °F /  0.4 °C 30.42 in /  1030 hPa SSW 5.1 mph /  8.2 km/h 8.1 mph /  13 km/h 73 % 0.00 in /  0 mm
09:11 41.2 °F /  5.1 °C 32.9 °F /  0.5 °C 30.42 in /  1030 hPa SSW 4.3 mph /  6.9 km/h 10.4 mph /  16.7 km/h 72 % 0.00 in /  0 mm
09:16 41.7 °F /  5.4 °C 33.0 °F /  0.6 °C 30.41 in /  1029.7 hPa SSW 7.9 mph /  12.7 km/h 13.0 mph /  20.9 km/h 71 % 0.00 in /  0 mm
09:21 42.4 °F /  5.8 °C 32.9 °F /  0.5 °C 30.42 in /  1030 hPa South 6.2 mph /  10 km/h 11.5 mph /  18.5 km/h 69 % 0.00 in /  0 mm
09:26 43.0 °F /  6.1 °C 32.4 °F /  0.2 °C 30.41 in /  1029.7 hPa WSW 8.7 mph /  14 km/h 15.0 mph /  24.1 km/h 66 % 0.00 in /  0 mm
09:31 43.1 °F /  6.2 °C 31.7 °F /  -0.2 °C 30.42 in /  1030 hPa West 5.2 mph /  8.4 km/h 9.2 mph /  14.8 km/h 64 % 0.00 in /  0 mm
09:41 43.3 °F /  6.3 °C 31.1 °F /  -0.5 °C 30.42 in /  1030 hPa South 8.8 mph /  14.2 km/h 13.8 mph /  22.2 km/h 62 % 0.00 in /  0 mm
09:46 43.3 °F /  6.3 °C 31.1 °F /  -0.5 °C 30.42 in /  1030 hPa SSW 8.1 mph /  13 km/h 12.7 mph /  20.4 km/h 62 % 0.00 in /  0 mm
09:51 43.3 °F /  6.3 °C 31.5 °F /  -0.3 °C 30.42 in /  1030 hPa South 5.8 mph /  9.3 km/h 9.2 mph /  14.8 km/h 63 % 0.00 in /  0 mm
09:56 43.3 °F /  6.3 °C 30.7 °F /  -0.7 °C 30.41 in /  1029.7 hPa South 6.2 mph /  10 km/h 11.0 mph /  17.7 km/h 61 % 0.00 in /  0 mm
10:01 44.0 °F /  6.7 °C 31.4 °F /  -0.3 °C 30.41 in /  1029.7 hPa SSW 8.0 mph /  12.9 km/h 12.7 mph /  20.4 km/h 61 % 0.00 in /  0 mm
10:06 44.7 °F /  7.1 °C 31.7 °F /  -0.2 °C 30.41 in /  1029.7 hPa SW 6.7 mph /  10.8 km/h 14.0 mph /  22.5 km/h 60 % 0.00 in /  0 mm
10:11 44.8 °F /  7.1 °C 30.5 °F /  -0.8 °C 30.41 in /  1029.7 hPa SW 6.6 mph /  10.6 km/h 12.7 mph /  20.4 km/h 57 % 0.00 in /  0 mm
10:16 44.7 °F /  7.1 °C 30.4 °F /  -0.9 °C 30.40 in /  1029.3 hPa South 8.4 mph /  13.5 km/h 11.0 mph /  17.7 km/h 57 % 0.00 in /  0 mm
10:21 44.6 °F /  7 °C 30.3 °F /  -0.9 °C 30.39 in /  1029 hPa South 10.4 mph /  16.7 km/h 19.6 mph /  31.5 km/h 57 % 0.00 in /  0 mm
10:26 44.7 °F /  7.1 °C 30.0 °F /  -1.1 °C 30.39 in /  1029 hPa South 8.2 mph /  13.2 km/h 15.0 mph /  24.1 km/h 56 % 0.00 in /  0 mm
10:31 45.0 °F /  7.2 °C 29.8 °F /  -1.2 °C 30.39 in /  1029 hPa SSW 9.3 mph /  15 km/h 13.0 mph /  20.9 km/h 55 % 0.00 in /  0 mm
10:37 45.2 °F /  7.3 °C 30.0 °F /  -1.1 °C 30.39 in /  1029 hPa SSW 5.5 mph /  8.9 km/h 10.4 mph /  16.7 km/h 55 % 0.00 in /  0 mm
10:42 45.5 °F /  7.5 °C 30.7 °F /  -0.7 °C 30.38 in /  1028.7 hPa SW 6.3 mph /  10.1 km/h 11.0 mph /  17.7 km/h 56 % 0.00 in /  0 mm
10:47 45.9 °F /  7.7 °C 28.8 °F /  -1.8 °C 30.38 in /  1028.7 hPa SW 11.7 mph /  18.8 km/h 18.4 mph /  29.6 km/h 51 % 0.00 in /  0 mm
10:52 46.0 °F /  7.8 °C 28.4 °F /  -2 °C 30.38 in /  1028.7 hPa SSW 5.1 mph /  8.2 km/h 11.5 mph /  18.5 km/h 50 % 0.00 in /  0 mm
10:57 45.9 °F /  7.7 °C 27.8 °F /  -2.3 °C 30.38 in /  1028.7 hPa SSW 8.5 mph /  13.7 km/h 18.4 mph /  29.6 km/h 49 % 0.00 in /  0 mm
11:02 45.7 °F /  7.6 °C 28.6 °F /  -1.9 °C 30.38 in /  1028.7 hPa SSW 4.3 mph /  6.9 km/h 10.4 mph /  16.7 km/h 51 % 0.00 in /  0 mm
11:07 45.8 °F /  7.7 °C 29.2 °F /  -1.6 °C 30.38 in /  1028.7 hPa South 6.1 mph /  9.8 km/h 12.7 mph /  20.4 km/h 52 % 0.00 in /  0 mm
11:12 45.8 °F /  7.7 °C 29.6 °F /  -1.3 °C 30.38 in /  1028.7 hPa South 4.0 mph /  6.4 km/h 6.9 mph /  11.1 km/h 53 % 0.00 in /  0 mm
11:17 45.7 °F /  7.6 °C 29.5 °F /  -1.4 °C 30.38 in /  1028.7 hPa South 9.6 mph /  15.4 km/h 17.3 mph /  27.8 km/h 53 % 0.00 in /  0 mm
11:22 45.6 °F /  7.6 °C 29.4 °F /  -1.4 °C 30.38 in /  1028.7 hPa SSW 7.6 mph /  12.2 km/h 12.7 mph /  20.4 km/h 53 % 0.00 in /  0 mm
11:32 45.9 °F /  7.7 °C 30.2 °F /  -1 °C 30.37 in /  1028.3 hPa South 7.7 mph /  12.4 km/h 12.7 mph /  20.4 km/h 54 % 0.00 in /  0 mm
11:37 45.9 °F /  7.7 °C 30.2 °F /  -1 °C 30.37 in /  1028.3 hPa SSW 9.0 mph /  14.5 km/h 16.1 mph /  25.9 km/h 54 % 0.00 in /  0 mm
11:42 45.9 °F /  7.7 °C 30.2 °F /  -1 °C 30.37 in /  1028.3 hPa South 9.1 mph /  14.6 km/h 15.0 mph /  24.1 km/h 54 % 0.00 in /  0 mm
11:47 45.9 °F /  7.7 °C 30.2 °F /  -1 °C 30.36 in /  1028 hPa SSW 8.6 mph /  13.8 km/h 17.3 mph /  27.8 km/h 54 % 0.00 in /  0 mm
11:52 45.8 °F /  7.7 °C 30.1 °F /  -1.1 °C 30.37 in /  1028.3 hPa SW 9.9 mph /  15.9 km/h 15.0 mph /  24.1 km/h 54 % 0.00 in /  0 mm
11:57 45.8 °F /  7.7 °C 30.5 °F /  -0.8 °C 30.36 in /  1028 hPa SSW 6.1 mph /  9.8 km/h 8.1 mph /  13 km/h 55 % 0.00 in /  0 mm
12:02 45.8 °F /  7.7 °C 30.1 °F /  -1.1 °C 30.36 in /  1028 hPa SW 9.6 mph /  15.4 km/h 18.4 mph /  29.6 km/h 54 % 0.00 in /  0 mm
12:07 45.7 °F /  7.6 °C 30.0 °F /  -1.1 °C 30.36 in /  1028 hPa SSW 3.8 mph /  6.1 km/h 8.1 mph /  13 km/h 54 % 0.00 in /  0 mm
12:12 45.6 °F /  7.6 °C 30.3 °F /  -0.9 °C 30.34 in /  1027.3 hPa SSW 10.2 mph /  16.4 km/h 17.3 mph /  27.8 km/h 55 % 0.00 in /  0 mm
12:17 45.6 °F /  7.6 °C 30.8 °F /  -0.7 °C 30.34 in /  1027.3 hPa SW 6.2 mph /  10 km/h 10.4 mph /  16.7 km/h 56 % 0.00 in /  0 mm
12:22 45.8 °F /  7.7 °C 31.4 °F /  -0.3 °C 30.34 in /  1027.3 hPa SSW 5.8 mph /  9.3 km/h 11.5 mph /  18.5 km/h 57 % 0.00 in /  0 mm
12:27 46.1 °F /  7.8 °C 31.7 °F /  -0.2 °C 30.33 in /  1027 hPa SW 1.7 mph /  2.7 km/h 6.9 mph /  11.1 km/h 57 % 0.00 in /  0 mm
12:32 46.6 °F /  8.1 °C 31.7 °F /  -0.2 °C 30.32 in /  1026.6 hPa SSW 7.5 mph /  12.1 km/h 10.4 mph /  16.7 km/h 56 % 0.00 in /  0 mm
12:37 46.8 °F /  8.2 °C 31.5 °F /  -0.3 °C 30.31 in /  1026.3 hPa SSW 7.0 mph /  11.3 km/h 12.0 mph /  19.3 km/h 55 % 0.00 in /  0 mm
12:42 47.1 °F /  8.4 °C 31.7 °F /  -0.2 °C 30.30 in /  1026 hPa SSW 8.0 mph /  12.9 km/h 15.0 mph /  24.1 km/h 55 % 0.00 in /  0 mm
12:47 47.3 °F /  8.5 °C 32.4 °F /  0.2 °C 30.30 in /  1026 hPa South 5.5 mph /  8.9 km/h 5.8 mph /  9.3 km/h 56 % 0.00 in /  0 mm
12:52 47.5 °F /  8.6 °C 31.7 °F /  -0.2 °C 30.30 in /  1026 hPa SSW 6.0 mph /  9.7 km/h 14.0 mph /  22.5 km/h 54 % 0.00 in /  0 mm
12:58 47.3 °F /  8.5 °C 31.5 °F /  -0.3 °C 30.30 in /  1026 hPa South 6.3 mph /  10.1 km/h 11.5 mph /  18.5 km/h 54 % 0.00 in /  0 mm
13:03 47.2 °F /  8.4 °C 31.8 °F /  -0.1 °C 30.30 in /  1026 hPa SSW 4.8 mph /  7.7 km/h 10.4 mph /  16.7 km/h 55 % 0.00 in /  0 mm
13:08 47.5 °F /  8.6 °C 32.1 °F /  0.1 °C 30.30 in /  1026 hPa SW 4.5 mph /  7.2 km/h 10.0 mph /  16.1 km/h 55 % 0.00 in /  0 mm
13:13 47.7 °F /  8.7 °C 31.9 °F /  -0.1 °C 30.28 in /  1025.3 hPa SSW 9.3 mph /  15 km/h 15.0 mph /  24.1 km/h 54 % 0.00 in /  0 mm
13:18 47.7 °F /  8.7 °C 33.2 °F /  0.7 °C 30.28 in /  1025.3 hPa WSW 3.2 mph /  5.1 km/h 9.2 mph /  14.8 km/h 57 % 0.00 in /  0 mm
13:23 47.8 °F /  8.8 °C 34.6 °F /  1.4 °C 30.29 in /  1025.6 hPa SSW 3.7 mph /  6 km/h 6.9 mph /  11.1 km/h 60 % 0.00 in /  0 mm
13:28 47.8 °F /  8.8 °C 35.4 °F /  1.9 °C 30.28 in /  1025.3 hPa SSW 1.8 mph /  2.9 km/h 4.6 mph /  7.4 km/h 62 % 0.00 in /  0 mm
13:33 47.9 °F /  8.8 °C 35.1 °F /  1.7 °C 30.27 in /  1024.9 hPa SSW 6.7 mph /  10.8 km/h 12.7 mph /  20.4 km/h 61 % 0.00 in /  0 mm
13:38 47.5 °F /  8.6 °C 33.9 °F /  1.1 °C 30.26 in /  1024.6 hPa SW 9.0 mph /  14.5 km/h 13.8 mph /  22.2 km/h 59 % 0.00 in /  0 mm
13:43 47.1 °F /  8.4 °C 34.3 °F /  1.3 °C 30.24 in /  1023.9 hPa South 4.4 mph /  7.1 km/h 7.0 mph /  11.3 km/h 61 % 0.00 in /  0 mm
13:48 46.8 °F /  8.2 °C 34.0 °F /  1.1 °C 30.24 in /  1023.9 hPa South 6.5 mph /  10.5 km/h 9.2 mph /  14.8 km/h 61 % 0.00 in /  0 mm
13:49 46.8 °F /  8.2 °C 34.0 °F /  1.1 °C 30.24 in /  1023.9 hPa SW 5.3 mph /  8.5 km/h 10.4 mph /  16.7 km/h 61 % 0.00 in /  0 mm
13:54 46.8 °F /  8.2 °C 33.6 °F /  0.9 °C 30.24 in /  1023.9 hPa SW 7.1 mph /  11.4 km/h 15.0 mph /  24.1 km/h 60 % 0.00 in /  0 mm
13:59 46.8 °F /  8.2 °C 34.0 °F /  1.1 °C 30.23 in /  1023.6 hPa South 4.0 mph /  6.4 km/h 6.9 mph /  11.1 km/h 61 % 0.00 in /  0 mm
14:04 46.7 °F /  8.2 °C 34.0 °F /  1.1 °C 30.23 in /  1023.6 hPa South 7.2 mph /  11.6 km/h 12.7 mph /  20.4 km/h 61 % 0.00 in /  0 mm
14:09 46.7 °F /  8.2 °C 34.4 °F /  1.3 °C 30.22 in /  1023.2 hPa SSE 4.5 mph /  7.2 km/h 9.0 mph /  14.5 km/h 62 % 0.00 in /  0 mm
14:14 46.7 °F /  8.2 °C 34.4 °F /  1.3 °C 30.22 in /  1023.2 hPa SW 2.0 mph /  3.2 km/h 5.8 mph /  9.3 km/h 62 % 0.00 in /  0 mm
14:19 46.7 °F /  8.2 °C 34.4 °F /  1.3 °C 30.22 in /  1023.2 hPa SW 4.4 mph /  7.1 km/h 8.1 mph /  13 km/h 62 % 0.00 in /  0 mm
14:24 46.7 °F /  8.2 °C 34.0 °F /  1.1 °C 30.21 in /  1022.9 hPa SSW 5.6 mph /  9 km/h 11.5 mph /  18.5 km/h 61 % 0.00 in /  0 mm
14:29 46.6 °F /  8.1 °C 34.3 °F /  1.3 °C 30.22 in /  1023.2 hPa South 2.7 mph /  4.3 km/h 5.8 mph /  9.3 km/h 62 % 0.00 in /  0 mm
14:34 46.6 °F /  8.1 °C 33.9 °F /  1.1 °C 30.21 in /  1022.9 hPa SW 3.9 mph /  6.3 km/h 6.9 mph /  11.1 km/h 61 % 0.00 in /  0 mm
14:39 46.7 °F /  8.2 °C 34.0 °F /  1.1 °C 30.20 in /  1022.6 hPa SSW 5.0 mph /  8 km/h 8.1 mph /  13 km/h 61 % 0.00 in /  0 mm
14:44 46.6 °F /  8.1 °C 33.9 °F /  1.1 °C 30.20 in /  1022.6 hPa SW 3.8 mph /  6.1 km/h 10.4 mph /  16.7 km/h 61 % 0.00 in /  0 mm
14:49 46.6 °F /  8.1 °C 34.3 °F /  1.3 °C 30.19 in /  1022.2 hPa South 3.5 mph /  5.6 km/h 5.0 mph /  8 km/h 62 % 0.00 in /  0 mm
14:54 46.6 °F /  8.1 °C 33.9 °F /  1.1 °C 30.19 in /  1022.2 hPa SW 4.3 mph /  6.9 km/h 6.0 mph /  9.7 km/h 61 % 0.00 in /  0 mm
14:59 46.9 °F /  8.3 °C 34.6 °F /  1.4 °C 30.19 in /  1022.2 hPa SW 4.7 mph /  7.6 km/h 9.2 mph /  14.8 km/h 62 % 0.00 in /  0 mm
15:00 46.9 °F /  8.3 °C 34.1 °F /  1.2 °C 30.19 in /  1022.2 hPa SSW 3.1 mph /  5 km/h 3.5 mph /  5.6 km/h 61 % 0.00 in /  0 mm
15:05 47.0 °F /  8.3 °C 33.8 °F /  1 °C 30.18 in /  1021.9 hPa SW 1.5 mph /  2.4 km/h 6.9 mph /  11.1 km/h 60 % 0.00 in /  0 mm
15:11 47.1 °F /  8.4 °C 33.9 °F /  1.1 °C 30.18 in /  1021.9 hPa SSE 4.4 mph /  7.1 km/h 9.2 mph /  14.8 km/h 60 % 0.00 in /  0 mm
15:16 47.0 °F /  8.3 °C 33.8 °F /  1 °C 30.18 in /  1021.9 hPa WSW 2.9 mph /  4.7 km/h 7.0 mph /  11.3 km/h 60 % 0.00 in /  0 mm
15:21 47.0 °F /  8.3 °C 33.4 °F /  0.8 °C 30.18 in /  1021.9 hPa SSW 7.4 mph /  11.9 km/h 13.8 mph /  22.2 km/h 59 % 0.00 in /  0 mm
15:26 47.1 °F /  8.4 °C 33.9 °F /  1.1 °C 30.17 in /  1021.6 hPa SW 3.6 mph /  5.8 km/h 6.9 mph /  11.1 km/h 60 % 0.00 in /  0 mm
15:31 47.2 °F /  8.4 °C 34.0 °F /  1.1 °C 30.17 in /  1021.6 hPa SW 5.4 mph /  8.7 km/h 11.5 mph /  18.5 km/h 60 % 0.00 in /  0 mm
15:36 47.4 °F /  8.6 °C 34.2 °F /  1.2 °C 30.17 in /  1021.6 hPa SSW 2.7 mph /  4.3 km/h 6.9 mph /  11.1 km/h 60 % 0.00 in /  0 mm
15:41 47.6 °F /  8.7 °C 34.4 °F /  1.3 °C 30.16 in /  1021.2 hPa South 5.5 mph /  8.9 km/h 8.1 mph /  13 km/h 60 % 0.00 in /  0 mm
15:46 48.0 °F /  8.9 °C 34.8 °F /  1.6 °C 30.16 in /  1021.2 hPa SW 5.0 mph /  8 km/h 11.5 mph /  18.5 km/h 60 % 0.00 in /  0 mm
15:51 48.4 °F /  9.1 °C 34.3 °F /  1.3 °C 30.15 in /  1020.9 hPa SSW 5.5 mph /  8.9 km/h 18.4 mph /  29.6 km/h 58 % 0.00 in /  0 mm
15:56 48.7 °F /  9.3 °C 35.0 °F /  1.7 °C 30.15 in /  1020.9 hPa SSW 6.3 mph /  10.1 km/h 10.4 mph /  16.7 km/h 59 % 0.00 in /  0 mm
16:01 49.0 °F /  9.4 °C 35.3 °F /  1.8 °C 30.15 in /  1020.9 hPa South 8.1 mph /  13 km/h 14.0 mph /  22.5 km/h 59 % 0.00 in /  0 mm
16:06 49.2 °F /  9.6 °C 35.0 °F /  1.7 °C 30.15 in /  1020.9 hPa SSW 6.3 mph /  10.1 km/h 7.0 mph /  11.3 km/h 58 % 0.00 in /  0 mm
16:11 49.4 °F /  9.7 °C 35.2 °F /  1.8 °C 30.14 in /  1020.5 hPa SSW 4.9 mph /  7.9 km/h 9.2 mph /  14.8 km/h 58 % 0.00 in /  0 mm
16:16 49.6 °F /  9.8 °C 35.4 °F /  1.9 °C 30.14 in /  1020.5 hPa South 7.6 mph /  12.2 km/h 12.0 mph /  19.3 km/h 58 % 0.00 in /  0 mm
16:21 49.8 °F /  9.9 °C 35.6 °F /  2 °C 30.14 in /  1020.5 hPa South 7.9 mph /  12.7 km/h 11.5 mph /  18.5 km/h 58 % 0.00 in /  0 mm
16:26 49.9 °F /  9.9 °C 35.7 °F /  2.1 °C 30.14 in /  1020.5 hPa SSW 4.5 mph /  7.2 km/h 6.0 mph /  9.7 km/h 58 % 0.00 in /  0 mm
16:31 50.1 °F /  10.1 °C 35.9 °F /  2.2 °C 30.14 in /  1020.5 hPa SW 4.0 mph /  6.4 km/h 6.0 mph /  9.7 km/h 58 % 0.00 in /  0 mm
16:36 50.3 °F /  10.2 °C 36.1 °F /  2.3 °C 30.13 in /  1020.2 hPa SW 2.2 mph /  3.5 km/h 7.0 mph /  11.3 km/h 58 % 0.00 in /  0 mm
16:41 50.7 °F /  10.4 °C 36.5 °F /  2.5 °C 30.13 in /  1020.2 hPa SW 7.7 mph /  12.4 km/h 13.0 mph /  20.9 km/h 58 % 0.00 in /  0 mm
16:46 51.0 °F /  10.6 °C 36.7 °F /  2.6 °C 30.13 in /  1020.2 hPa SSW 5.6 mph /  9 km/h 11.0 mph /  17.7 km/h 58 % 0.00 in /  0 mm
16:51 51.3 °F /  10.7 °C 36.1 °F /  2.3 °C 30.13 in /  1020.2 hPa SW 3.8 mph /  6.1 km/h 8.1 mph /  13 km/h 56 % 0.00 in /  0 mm
16:57 51.4 °F /  10.8 °C 36.7 °F /  2.6 °C 30.12 in /  1019.9 hPa SW 3.2 mph /  5.1 km/h 4.6 mph /  7.4 km/h 57 % 0.00 in /  0 mm
17:02 51.5 °F /  10.8 °C 36.3 °F /  2.4 °C 30.12 in /  1019.9 hPa SW 3.6 mph /  5.8 km/h 5.8 mph /  9.3 km/h 56 % 0.00 in /  0 mm
17:07 51.6 °F /  10.9 °C 36.4 °F /  2.4 °C 30.12 in /  1019.9 hPa SW 6.8 mph /  10.9 km/h 9.2 mph /  14.8 km/h 56 % 0.00 in /  0 mm
17:12 51.6 °F /  10.9 °C 36.4 °F /  2.4 °C 30.12 in /  1019.9 hPa South 3.0 mph /  4.8 km/h 9.2 mph /  14.8 km/h 56 % 0.00 in /  0 mm
17:17 51.7 °F /  10.9 °C 37.4 °F /  3 °C 30.12 in /  1019.9 hPa WSW 2.5 mph /  4 km/h 4.0 mph /  6.4 km/h 58 % 0.00 in /  0 mm
17:22 51.7 °F /  10.9 °C 36.5 °F /  2.5 °C 30.12 in /  1019.9 hPa SW 7.6 mph /  12.2 km/h 11.5 mph /  18.5 km/h 56 % 0.00 in /  0 mm
17:27 51.7 °F /  10.9 °C 36.9 °F /  2.7 °C 30.12 in /  1019.9 hPa SW 2.5 mph /  4 km/h 6.0 mph /  9.7 km/h 57 % 0.00 in /  0 mm
17:32 51.6 °F /  10.9 °C 36.9 °F /  2.7 °C 30.12 in /  1019.9 hPa WSW 4.2 mph /  6.8 km/h 9.0 mph /  14.5 km/h 57 % 0.00 in /  0 mm
17:37 51.6 °F /  10.9 °C 36.9 °F /  2.7 °C 30.12 in /  1019.9 hPa South 2.8 mph /  4.5 km/h 4.6 mph /  7.4 km/h 57 % 0.00 in /  0 mm
17:42 51.4 °F /  10.8 °C 37.1 °F /  2.8 °C 30.12 in /  1019.9 hPa South 1.1 mph /  1.8 km/h 3.5 mph /  5.6 km/h 58 % 0.00 in /  0 mm
17:47 51.3 °F /  10.7 °C 37.0 °F /  2.8 °C 30.12 in /  1019.9 hPa SSW 1.3 mph /  2.1 km/h 4.0 mph /  6.4 km/h 58 % 0.00 in /  0 mm
17:52 51.2 °F /  10.7 °C 36.9 °F /  2.7 °C 30.11 in /  1019.5 hPa SSW 2.8 mph /  4.5 km/h 5.8 mph /  9.3 km/h 58 % 0.00 in /  0 mm
17:57 51.0 °F /  10.6 °C 36.7 °F /  2.6 °C 30.11 in /  1019.5 hPa South 1.7 mph /  2.7 km/h 5.8 mph /  9.3 km/h 58 % 0.00 in /  0 mm
18:02 50.8 °F /  10.4 °C 37.0 °F /  2.8 °C 30.11 in /  1019.5 hPa SSW 3.1 mph /  5 km/h 6.0 mph /  9.7 km/h 59 % 0.00 in /  0 mm
18:07 50.6 °F /  10.3 °C 37.2 °F /  2.9 °C 30.11 in /  1019.5 hPa SSW 1.2 mph /  1.9 km/h 2.3 mph /  3.7 km/h 60 % 0.00 in /  0 mm
18:12 50.5 °F /  10.3 °C 37.1 °F /  2.8 °C 30.11 in /  1019.5 hPa South 2.3 mph /  3.7 km/h 6.0 mph /  9.7 km/h 60 % 0.00 in /  0 mm
18:17 50.4 °F /  10.2 °C 37.0 °F /  2.8 °C 30.11 in /  1019.5 hPa South 2.9 mph /  4.7 km/h 4.6 mph /  7.4 km/h 60 % 0.00 in /  0 mm
18:22 50.2 °F /  10.1 °C 37.3 °F /  2.9 °C 30.10 in /  1019.2 hPa SSE 1.8 mph /  2.9 km/h 4.6 mph /  7.4 km/h 61 % 0.00 in /  0 mm
18:24 50.1 °F /  10.1 °C 37.2 °F /  2.9 °C 30.10 in /  1019.2 hPa SE 2.9 mph /  4.7 km/h 8.0 mph /  12.9 km/h 61 % 0.00 in /  0 mm
18:29 49.9 °F /  9.9 °C 37.4 °F /  3 °C 30.09 in /  1018.8 hPa SSW 4.2 mph /  6.8 km/h 6.9 mph /  11.1 km/h 62 % 0.00 in /  0 mm
18:34 49.7 °F /  9.8 °C 37.2 °F /  2.9 °C 30.09 in /  1018.8 hPa SSW 4.1 mph /  6.6 km/h 8.1 mph /  13 km/h 62 % 0.00 in /  0 mm
18:39 49.5 °F /  9.7 °C 37.4 °F /  3 °C 30.09 in /  1018.8 hPa South 3.0 mph /  4.8 km/h 4.6 mph /  7.4 km/h 63 % 0.00 in /  0 mm
18:45 49.4 °F /  9.7 °C 37.3 °F /  2.9 °C 30.08 in /  1018.5 hPa South 1.9 mph /  3.1 km/h 6.0 mph /  9.7 km/h 63 % 0.00 in /  0 mm
18:50 49.2 °F /  9.6 °C 37.5 °F /  3.1 °C 30.08 in /  1018.5 hPa South 1.9 mph /  3.1 km/h 4.6 mph /  7.4 km/h 64 % 0.00 in /  0 mm
18:55 49.0 °F /  9.4 °C 37.3 °F /  2.9 °C 30.08 in /  1018.5 hPa South 2.1 mph /  3.4 km/h 8.1 mph /  13 km/h 64 % 0.00 in /  0 mm
18:59 48.8 °F /  9.3 °C 37.6 °F /  3.1 °C 30.08 in /  1018.5 hPa SSW 2.1 mph /  3.4 km/h 4.0 mph /  6.4 km/h 65 % 0.00 in /  0 mm
19:04 48.6 °F /  9.2 °C 37.4 °F /  3 °C 30.08 in /  1018.5 hPa SSW 4.7 mph /  7.6 km/h 9.2 mph /  14.8 km/h 65 % 0.00 in /  0 mm
19:09 48.2 °F /  9 °C 37.4 °F /  3 °C 30.08 in /  1018.5 hPa SSE 3.3 mph /  5.3 km/h 6.9 mph /  11.1 km/h 66 % 0.00 in /  0 mm
19:14 48.0 °F /  8.9 °C 37.6 °F /  3.1 °C 30.08 in /  1018.5 hPa SSW 2.6 mph /  4.2 km/h 5.0 mph /  8 km/h 67 % 0.00 in /  0 mm
19:19 47.8 °F /  8.8 °C 37.4 °F /  3 °C 30.08 in /  1018.5 hPa SSE 3.2 mph /  5.1 km/h 6.9 mph /  11.1 km/h 67 % 0.00 in /  0 mm
19:24 47.6 °F /  8.7 °C 37.6 °F /  3.1 °C 30.08 in /  1018.5 hPa SSW 3.1 mph /  5 km/h 4.6 mph /  7.4 km/h 68 % 0.00 in /  0 mm
19:29 47.4 °F /  8.6 °C 37.7 °F /  3.2 °C 30.08 in /  1018.5 hPa South 2.0 mph /  3.2 km/h 5.8 mph /  9.3 km/h 69 % 0.00 in /  0 mm
19:34 47.2 °F /  8.4 °C 37.5 °F /  3.1 °C 30.08 in /  1018.5 hPa SSW 1.7 mph /  2.7 km/h 3.5 mph /  5.6 km/h 69 % 0.00 in /  0 mm
19:39 47.0 °F /  8.3 °C 37.4 °F /  3 °C 30.08 in /  1018.5 hPa SSW 0.5 mph /  0.8 km/h 2.3 mph /  3.7 km/h 69 % 0.00 in /  0 mm
19:44 46.9 °F /  8.3 °C 37.6 °F /  3.1 °C 30.08 in /  1018.5 hPa South 1.5 mph /  2.4 km/h 3.5 mph /  5.6 km/h 70 % 0.00 in /  0 mm
19:49 46.7 °F /  8.2 °C 37.8 °F /  3.2 °C 30.09 in /  1018.8 hPa SSW 1.0 mph /  1.6 km/h 3.5 mph /  5.6 km/h 71 % 0.00 in /  0 mm
19:54 46.5 °F /  8.1 °C 37.6 °F /  3.1 °C 30.09 in /  1018.8 hPa SW 3.8 mph /  6.1 km/h 5.8 mph /  9.3 km/h 71 % 0.00 in /  0 mm
20:04 46.3 °F /  7.9 °C 38.1 °F /  3.4 °C 30.09 in /  1018.8 hPa SW 2.4 mph /  3.9 km/h 4.6 mph /  7.4 km/h 73 % 0.00 in /  0 mm
20:09 46.1 °F /  7.8 °C 37.9 °F /  3.3 °C 30.09 in /  1018.8 hPa SW 2.5 mph /  4 km/h 3.5 mph /  5.6 km/h 73 % 0.00 in /  0 mm
20:14 46.0 °F /  7.8 °C 37.8 °F /  3.2 °C 30.09 in /  1018.8 hPa South 2.1 mph /  3.4 km/h 3.5 mph /  5.6 km/h 73 % 0.00 in /  0 mm
20:19 45.9 °F /  7.7 °C 38.1 °F /  3.4 °C 30.09 in /  1018.8 hPa SSW 3.3 mph /  5.3 km/h 5.0 mph /  8 km/h 74 % 0.00 in /  0 mm
20:24 45.8 °F /  7.7 °C 38.0 °F /  3.3 °C 30.09 in /  1018.8 hPa South 2.0 mph /  3.2 km/h 5.8 mph /  9.3 km/h 74 % 0.00 in /  0 mm
20:29 45.6 °F /  7.6 °C 38.1 °F /  3.4 °C 30.10 in /  1019.2 hPa SW 2.4 mph /  3.9 km/h 4.0 mph /  6.4 km/h 75 % 0.00 in /  0 mm
20:34 45.6 °F /  7.6 °C 38.1 °F /  3.4 °C 30.10 in /  1019.2 hPa SW 2.5 mph /  4 km/h 4.0 mph /  6.4 km/h 75 % 0.00 in /  0 mm
20:39 45.5 °F /  7.5 °C 38.0 °F /  3.3 °C 30.10 in /  1019.2 hPa WSW 0.9 mph /  1.4 km/h 2.3 mph /  3.7 km/h 75 % 0.00 in /  0 mm
20:44 45.4 °F /  7.4 °C 37.9 °F /  3.3 °C 30.11 in /  1019.5 hPa WSW 1.8 mph /  2.9 km/h 3.5 mph /  5.6 km/h 75 % 0.00 in /  0 mm
20:49 45.4 °F /  7.4 °C 38.3 °F /  3.5 °C 30.11 in /  1019.5 hPa SW 0.7 mph /  1.1 km/h 1.2 mph /  1.9 km/h 76 % 0.00 in /  0 mm
20:54 45.4 °F /  7.4 °C 38.3 °F /  3.5 °C 30.11 in /  1019.5 hPa SW 0.7 mph /  1.1 km/h 3.0 mph /  4.8 km/h 76 % 0.00 in /  0 mm
20:59 45.4 °F /  7.4 °C 38.3 °F /  3.5 °C 30.11 in /  1019.5 hPa SW 0.2 mph /  0.3 km/h 2.3 mph /  3.7 km/h 76 % 0.00 in /  0 mm
21:04 45.3 °F /  7.4 °C 38.2 °F /  3.4 °C 30.11 in /  1019.5 hPa SW 1.3 mph /  2.1 km/h 3.5 mph /  5.6 km/h 76 % 0.00 in /  0 mm
21:09 45.3 °F /  7.4 °C 38.2 °F /  3.4 °C 30.11 in /  1019.5 hPa Calm     76 % 0.00 in /  0 mm
21:14 45.3 °F /  7.4 °C 38.2 °F /  3.4 °C 30.12 in /  1019.9 hPa SW 0.5 mph /  0.8 km/h 2.0 mph /  3.2 km/h 76 % 0.00 in /  0 mm
21:19 45.3 °F /  7.4 °C 38.5 °F /  3.6 °C 30.11 in /  1019.5 hPa SW 0.1 mph /  0.2 km/h 1.2 mph /  1.9 km/h 77 % 0.00 in /  0 mm
21:24 45.2 °F /  7.3 °C 38.1 °F /  3.4 °C 30.11 in /  1019.5 hPa SW 0.2 mph /  0.3 km/h 3.5 mph /  5.6 km/h 76 % 0.00 in /  0 mm
21:29 45.2 °F /  7.3 °C 38.4 °F /  3.6 °C 30.11 in /  1019.5 hPa SW 0.3 mph /  0.5 km/h 2.3 mph /  3.7 km/h 77 % 0.00 in /  0 mm
21:34 45.2 °F /  7.3 °C 38.4 °F /  3.6 °C 30.11 in /  1019.5 hPa SW 2.0 mph /  3.2 km/h 4.6 mph /  7.4 km/h 77 % 0.00 in /  0 mm
21:39 45.1 °F /  7.3 °C 38.6 °F /  3.7 °C 30.11 in /  1019.5 hPa SW 0.5 mph /  0.8 km/h 3.5 mph /  5.6 km/h 78 % 0.00 in /  0 mm
21:44 45.0 °F /  7.2 °C 38.6 °F /  3.7 °C 30.12 in /  1019.9 hPa SW 3.4 mph /  5.5 km/h 4.6 mph /  7.4 km/h 78 % 0.00 in /  0 mm
21:49 45.0 °F /  7.2 °C 38.9 °F /  3.8 °C 30.11 in /  1019.5 hPa SSW 1.8 mph /  2.9 km/h 3.5 mph /  5.6 km/h 79 % 0.00 in /  0 mm
21:54 44.9 °F /  7.2 °C 38.8 °F /  3.8 °C 30.11 in /  1019.5 hPa SW 2.1 mph /  3.4 km/h 3.5 mph /  5.6 km/h 79 % 0.00 in /  0 mm
21:59 44.9 °F /  7.2 °C 38.8 °F /  3.8 °C 30.11 in /  1019.5 hPa WSW 2.2 mph /  3.5 km/h 6.0 mph /  9.7 km/h 79 % 0.00 in /  0 mm
22:04 45.0 °F /  7.2 °C 38.9 °F /  3.8 °C 30.11 in /  1019.5 hPa SW 1.6 mph /  2.6 km/h 3.5 mph /  5.6 km/h 79 % 0.00 in /  0 mm
22:09 45.1 °F /  7.3 °C 39.0 °F /  3.9 °C 30.11 in /  1019.5 hPa SSW 1.7 mph /  2.7 km/h 3.5 mph /  5.6 km/h 79 % 0.00 in /  0 mm
22:15 45.1 °F /  7.3 °C 39.0 °F /  3.9 °C 30.10 in /  1019.2 hPa SSW 2.0 mph /  3.2 km/h 4.0 mph /  6.4 km/h 79 % 0.00 in /  0 mm
22:20 45.3 °F /  7.4 °C 39.2 °F /  4 °C 30.10 in /  1019.2 hPa SSW 3.2 mph /  5.1 km/h 4.6 mph /  7.4 km/h 79 % 0.00 in /  0 mm
22:25 45.4 °F /  7.4 °C 38.9 °F /  3.8 °C 30.11 in /  1019.5 hPa SW 2.5 mph /  4 km/h 9.2 mph /  14.8 km/h 78 % 0.00 in /  0 mm
22:30 45.8 °F /  7.7 °C 39.0 °F /  3.9 °C 30.11 in /  1019.5 hPa SSW 4.6 mph /  7.4 km/h 8.1 mph /  13 km/h 77 % 0.00 in /  0 mm
22:35 46.2 °F /  7.9 °C 39.1 °F /  3.9 °C 30.10 in /  1019.2 hPa SSW 4.2 mph /  6.8 km/h 8.1 mph /  13 km/h 76 % 0.00 in /  0 mm
22:40 46.5 °F /  8.1 °C 39.3 °F /  4.1 °C 30.10 in /  1019.2 hPa SSW 4.9 mph /  7.9 km/h 6.9 mph /  11.1 km/h 76 % 0.00 in /  0 mm
22:45 46.9 °F /  8.3 °C 39.0 °F /  3.9 °C 30.09 in /  1018.8 hPa SSW 4.5 mph /  7.2 km/h 6.9 mph /  11.1 km/h 74 % 0.00 in /  0 mm
22:50 47.2 °F /  8.4 °C 39.3 °F /  4.1 °C 30.09 in /  1018.8 hPa SW 1.8 mph /  2.9 km/h 5.0 mph /  8 km/h 74 % 0.00 in /  0 mm
22:55 47.4 °F /  8.6 °C 39.2 °F /  4 °C 30.09 in /  1018.8 hPa SW 5.1 mph /  8.2 km/h 6.9 mph /  11.1 km/h 73 % 0.00 in /  0 mm
22:57 47.5 °F /  8.6 °C 38.9 °F /  3.8 °C 30.09 in /  1018.8 hPa SW 5.0 mph /  8 km/h 8.1 mph /  13 km/h 72 % 0.00 in /  0 mm
23:02 47.7 °F /  8.7 °C 39.1 °F /  3.9 °C 30.09 in /  1018.8 hPa SSW 4.1 mph /  6.6 km/h 6.9 mph /  11.1 km/h 72 % 0.00 in /  0 mm
23:07 48.0 °F /  8.9 °C 39.0 °F /  3.9 °C 30.08 in /  1018.5 hPa SW 6.7 mph /  10.8 km/h 11.5 mph /  18.5 km/h 71 % 0.00 in /  0 mm
23:12 48.1 °F /  8.9 °C 38.8 °F /  3.8 °C 30.09 in /  1018.8 hPa SSW 4.6 mph /  7.4 km/h 6.9 mph /  11.1 km/h 70 % 0.00 in /  0 mm
23:17 48.4 °F /  9.1 °C 39.1 °F /  3.9 °C 30.08 in /  1018.5 hPa West 5.7 mph /  9.2 km/h 8.1 mph /  13 km/h 70 % 0.00 in /  0 mm
23:22 48.6 °F /  9.2 °C 38.9 °F /  3.8 °C 30.08 in /  1018.5 hPa SSW 3.9 mph /  6.3 km/h 8.0 mph /  12.9 km/h 69 % 0.00 in /  0 mm
23:27 48.8 °F /  9.3 °C 38.7 °F /  3.7 °C 30.08 in /  1018.5 hPa SW 3.7 mph /  6 km/h 5.8 mph /  9.3 km/h 68 % 0.00 in /  0 mm
23:32 49.0 °F /  9.4 °C 38.9 °F /  3.8 °C 30.08 in /  1018.5 hPa SSW 4.1 mph /  6.6 km/h 6.9 mph /  11.1 km/h 68 % 0.00 in /  0 mm
23:37 49.0 °F /  9.4 °C 38.9 °F /  3.8 °C 30.08 in /  1018.5 hPa SW 5.3 mph /  8.5 km/h 9.2 mph /  14.8 km/h 68 % 0.00 in /  0 mm
23:42 49.1 °F /  9.5 °C 39.0 °F /  3.9 °C 30.08 in /  1018.5 hPa WSW 5.3 mph /  8.5 km/h 10.4 mph /  16.7 km/h 68 % 0.00 in /  0 mm
23:47 49.1 °F /  9.5 °C 39.0 °F /  3.9 °C 30.08 in /  1018.5 hPa SW 5.6 mph /  9 km/h 6.0 mph /  9.7 km/h 68 % 0.00 in /  0 mm
23:52 49.2 °F /  9.6 °C 38.7 °F /  3.7 °C 30.08 in /  1018.5 hPa SW 5.9 mph /  9.5 km/h 7.0 mph /  11.3 km/h 67 % 0.00 in /  0 mm
23:57 49.2 °F /  9.6 °C 38.7 °F /  3.7 °C 30.08 in /  1018.5 hPa SW 6.6 mph /  10.6 km/h 11.5 mph /  18.5 km/h 67 % 0.00 in /  0 mm
Crab Meadow Weather
Compliments of Weather Underground - 3 mb

Script developed by  Jim McMurry - jmcmurry@mwt.net Adapted for the template by  Wim van der Kuil - Leuven-Template.eu

Weather Terms: Ice Storm Warning - Accumulations of 1/4 inch or more of freezing rain.